Time;durP1;ratioP1;P1;durP2;ratioP2;P2;SDS_P1;SDS_P2;PMS_P1;PMS_P2;Temp;Humidity;BMP_temperature;BMP_pressure;BME280_temperature;BME280_humidity;BME280_pressure;Samples;Min_cycle;Max_cycle;Signal;HPM_P1;HPM_P2
2023/01/28 00:00:45;;;;;;;0.30;0.30;;;;;;;18.28;41.71;102417.50;5132095;28;20086;-47
2023/01/28 00:03:11;;;;;;;0.40;0.40;;;;;;;18.29;41.83;102410.88;5132235;28;20043;-47
2023/01/28 00:05:37;;;;;;;0.30;0.30;;;;;;;18.28;42.02;102410.06;5131694;28;20044;-47
2023/01/28 00:08:02;;;;;;;0.30;0.30;;;;;;;18.28;41.92;102418.31;5131929;28;20047;-48
2023/01/28 00:10:28;;;;;;;0.30;0.30;;;;;;;18.28;41.79;102411.97;5132020;28;20051;-47
2023/01/28 00:12:53;;;;;;;0.40;0.40;;;;;;;18.27;41.86;102416.66;5132335;28;20069;-47
2023/01/28 00:15:19;;;;;;;0.40;0.40;;;;;;;18.27;41.84;102391.84;5131961;28;20043;-48
2023/01/28 00:17:45;;;;;;;0.40;0.40;;;;;;;18.29;42.01;102410.88;5113804;28;20052;-46
2023/01/28 00:20:11;;;;;;;0.30;0.30;;;;;;;18.27;41.95;102402.88;5111420;28;20043;-47
2023/01/28 00:22:36;;;;;;;0.30;0.30;;;;;;;18.27;42.03;102399.28;5111164;28;20048;-48
2023/01/28 00:25:02;;;;;;;0.40;0.40;;;;;;;18.28;41.72;102399.03;5111002;28;20157;-48
2023/01/28 00:27:28;;;;;;;0.40;0.40;;;;;;;18.26;41.86;102389.28;5110765;28;20044;-47
2023/01/28 00:29:54;;;;;;;0.32;0.32;;;;;;;18.27;41.73;102388.25;5111414;28;20058;-47
2023/01/28 00:32:19;;;;;;;0.30;0.30;;;;;;;18.27;41.78;102382.72;5110811;28;20068;-46
2023/01/28 00:34:45;;;;;;;0.40;0.40;;;;;;;18.27;41.95;102383.56;5111271;28;20051;-47
2023/01/28 00:37:11;;;;;;;0.30;0.30;;;;;;;18.27;41.84;102389.06;5123446;28;20057;-47
2023/01/28 00:39:36;;;;;;;0.40;0.40;;;;;;;18.26;41.91;102384.66;5131146;28;20051;-47
2023/01/28 00:42:02;;;;;;;0.40;0.40;;;;;;;18.26;41.96;102389.28;5131305;28;20542;-47
2023/01/28 00:44:28;;;;;;;0.30;0.30;;;;;;;18.28;42.00;102406.47;5131524;28;20051;-47
2023/01/28 00:46:53;;;;;;;0.60;0.60;;;;;;;18.26;41.88;102387.41;5131488;28;20047;-46
2023/01/28 00:49:19;;;;;;;0.30;0.30;;;;;;;18.27;41.75;102397.34;5131409;27;20053;-48
2023/01/28 00:51:47;;;;;;;0.30;0.30;;;;;;;18.26;42.02;102401.19;5131449;28;20531;-47
2023/01/28 00:54:13;;;;;;;0.30;0.30;;;;;;;18.26;42.00;102386.53;5131441;28;20210;-46
2023/01/28 00:56:39;;;;;;;0.30;0.30;;;;;;;18.27;41.97;102391.84;5130699;28;20504;-46
2023/01/28 00:59:04;;;;;;;0.38;0.38;;;;;;;18.26;41.94;102387.41;5131388;28;20050;-47
2023/01/28 01:01:30;;;;;;;0.30;0.30;;;;;;;18.25;42.02;102391.22;5131027;28;20078;-48
2023/01/28 01:04:01;;;;;;;0.30;0.30;;;;;;;18.25;42.00;102384.88;5131314;28;20049;-46
2023/01/28 01:06:29;;;;;;;0.40;0.40;;;;;;;18.25;41.92;102387.63;5130922;28;20081;-48
2023/01/28 01:08:54;;;;;;;0.20;0.20;;;;;;;18.25;41.87;102398.66;5112591;28;20278;-46
2023/01/28 01:11:20;;;;;;;0.30;0.30;;;;;;;18.25;41.91;102401.41;5131083;28;20490;-49
2023/01/28 01:13:51;;;;;;;0.30;0.30;;;;;;;18.25;41.95;102398.66;5131142;28;20050;-47
2023/01/28 01:16:16;;;;;;;0.30;0.30;;;;;;;18.25;41.92;102404.16;5130581;27;20051;-47
2023/01/28 01:18:42;;;;;;;0.30;0.30;;;;;;;18.25;41.83;102410.53;5112428;28;20425;-48
2023/01/28 01:21:13;;;;;;;0.47;0.47;;;;;;;18.25;42.07;102407.75;5130793;28;20104;-48
2023/01/28 01:23:39;;;;;;;0.30;0.30;;;;;;;18.24;41.81;102403.34;5095811;28;20490;-47
2023/01/28 01:26:05;;;;;;;0.32;0.32;;;;;;;18.24;41.70;102414.38;5111898;28;20054;-47
2023/01/28 01:28:31;;;;;;;0.30;0.30;;;;;;;18.25;41.79;102412.44;5130669;28;20071;-46
2023/01/28 01:31:02;;;;;;;0.30;0.30;;;;;;;18.24;41.75;102405.25;5111978;28;20398;-47
2023/01/28 01:33:28;;;;;;;0.30;0.30;;;;;;;18.24;41.81;102405.25;5095814;28;20103;-46
2023/01/28 01:35:55;;;;;;;0.30;0.30;;;;;;;18.23;41.90;102401.66;5111339;28;20510;-47
2023/01/28 01:38:20;;;;;;;0.40;0.40;;;;;;;18.24;41.88;102396.97;5130475;28;20081;-47
2023/01/28 01:40:46;;;;;;;0.30;0.30;;;;;;;18.24;41.77;102400.56;5130685;28;20052;-46
2023/01/28 01:43:18;;;;;;;0.30;0.30;;;;;;;18.25;41.91;102409.69;5130508;28;20414;-48
2023/01/28 01:45:46;;;;;;;0.30;0.30;;;;;;;18.23;41.82;102387.88;5130299;28;20108;-46
2023/01/28 01:48:14;;;;;;;;;;;;;;;18.24;41.74;102410.78;5130910;28;20471;-47
2023/01/28 01:50:50;;;;;;;0.30;0.30;;;;;;;18.24;41.82;102410.78;5130499;28;19958;-47
2023/01/28 01:53:17;;;;;;;0.30;0.30;;;;;;;18.23;41.88;102406.34;5130611;28;20078;-46
2023/01/28 01:55:44;;;;;;;0.60;0.60;;;;;;;18.23;41.87;102415.44;5111496;28;20566;-47
2023/01/28 01:58:14;;;;;;;0.20;0.20;;;;;;;18.23;41.95;102420.13;5130146;28;20043;-48
2023/01/28 02:00:41;;;;;;;0.30;0.30;;;;;;;18.24;41.86;102416.28;5129556;27;20475;-47
2023/01/28 02:03:08;;;;;;;0.30;0.30;;;;;;;18.23;41.88;102411.84;5130076;28;20403;-49
2023/01/28 02:05:34;;;;;;;0.30;0.30;;;;;;;18.22;41.90;102411.03;5111885;28;20142;-46
2023/01/28 02:08:31;;;;;;;0.30;0.30;;;;;;;18.22;41.79;102410.16;5111611;28;20111;-46
2023/01/28 02:10:50;;;;;;;0.30;0.30;;;;;;;18.23;41.96;102412.69;5100760;28;20217;-47
2023/01/28 02:13:18;;;;;;;0.80;0.77;;;;;;;18.23;41.75;102417.38;5130223;28;20047;-47
2023/01/28 02:15:45;;;;;;;0.35;0.35;;;;;;;18.23;41.78;102420.97;5106661;28;20047;-46
2023/01/28 02:18:10;;;;;;;0.40;0.40;;;;;;;18.23;41.66;102428.41;5117147;28;20047;-49
2023/01/28 02:21:09;;;;;;;0.40;0.40;;;;;;;18.23;41.89;102422.88;5130217;28;20051;-47
2023/01/28 02:23:54;;;;;;;0.30;0.30;;;;;;;18.22;41.90;102427.56;5116648;28;20074;-47
2023/01/28 02:26:29;;;;;;;0.30;0.30;;;;;;;18.23;41.97;102428.41;5094863;28;20047;-47
2023/01/28 02:29:20;;;;;;;0.30;0.30;;;;;;;18.22;41.73;102419.28;5112126;28;20075;-47
2023/01/28 02:31:52;;;;;;;0.30;0.30;;;;;;;18.22;41.72;102427.56;5111981;28;20058;-48
2023/01/28 02:34:39;;;;;;;0.30;0.30;;;;;;;18.21;41.92;102436.06;5091047;28;20055;-48
2023/01/28 02:37:29;;;;;;;0.32;0.32;;;;;;;18.23;42.02;102436.69;5120709;28;20061;-47
2023/01/28 02:40:00;;;;;;;0.30;0.30;;;;;;;18.22;41.81;102434.97;5114460;28;20071;-47
2023/01/28 02:42:28;;;;;;;0.40;0.40;;;;;;;18.22;41.98;102441.34;5111508;28;20047;-47
2023/01/28 02:44:54;;;;;;;0.30;0.30;;;;;;;18.23;41.82;102447.72;5129648;28;20340;-47
2023/01/28 02:50:11;;;;;;;0.30;0.30;;;;;;;18.21;41.72;102450.69;5100182;28;20069;-48
2023/01/28 02:58:00;;;;;;;0.30;0.30;;;;;;;18.22;41.92;102446.00;5188929;27;20115;-46
2023/01/28 03:00:51;;;;;;;0.40;0.40;;;;;;;18.21;41.88;102441.56;5149848;27;20208;-46
2023/01/28 03:03:23;;;;;;;0.30;0.30;;;;;;;18.19;41.75;102441.81;5152371;27;20066;-46
2023/01/28 03:06:09;;;;;;;0.40;0.40;;;;;;;18.21;41.96;102444.34;5149508;27;20078;-46
2023/01/28 03:36:54;;;;;;;0.30;0.30;;;;;;;18.20;41.84;102439.91;5130776;27;20325;-45
2023/01/28 03:39:24;;;;;;;0.40;0.40;;;;;;;18.20;41.76;102442.66;5163657;27;20053;-46
2023/01/28 03:42:07;;;;;;;0.30;0.30;;;;;;;18.20;41.99;102451.75;5167385;27;20046;-46
2023/01/28 03:45:06;;;;;;;0.30;0.30;;;;;;;18.19;41.74;102450.09;5148793;27;20046;-46
2023/01/28 03:47:23;;;;;;;0.30;0.30;;;;;;;18.20;41.68;102450.94;5116678;27;20111;-47
2023/01/28 03:49:51;;;;;;;0.40;0.40;;;;;;;18.19;42.00;102450.09;5148645;27;20052;-46
2023/01/28 03:52:19;;;;;;;0.40;0.40;;;;;;;18.19;42.05;102450.09;5131221;27;20038;-45
2023/01/28 03:54:47;;;;;;;0.30;0.30;;;;;;;18.20;41.81;102450.94;5167256;27;20042;-47
2023/01/28 03:57:14;;;;;;;0.30;0.30;;;;;;;18.19;41.83;102450.09;5127275;27;20062;-46
2023/01/28 03:59:40;;;;;;;0.40;0.40;;;;;;;18.19;41.87;102455.59;5166115;27;20445;-46
2023/01/28 04:02:06;;;;;;;0.30;0.30;;;;;;;18.20;41.76;102462.78;5166634;27;20482;-46
2023/01/28 04:04:31;;;;;;;0.40;0.40;;;;;;;18.19;41.93;102455.59;5148223;27;20043;-47
2023/01/28 04:06:57;;;;;;;0.30;0.30;;;;;;;18.18;41.97;102456.69;5166459;27;20127;-46
2023/01/28 04:09:23;;;;;;;0.38;0.38;;;;;;;18.19;41.86;102460.28;5152478;27;20050;-45
2023/01/28 04:11:49;;;;;;;0.52;0.40;;;;;;;18.20;41.96;102456.44;5148000;27;20077;-48
2023/01/28 04:14:16;;;;;;;0.30;0.30;;;;;;;18.19;41.79;102460.28;5143398;27;20179;-46
2023/01/28 04:16:42;;;;;;;0.30;0.30;;;;;;;18.19;41.74;102463.03;5136847;27;20067;-48
2023/01/28 04:19:08;;;;;;;0.30;0.30;;;;;;;18.19;41.77;102465.81;5131763;27;20043;-47
2023/01/28 04:21:34;;;;;;;0.30;0.30;;;;;;;18.18;41.88;102464.97;5132096;28;20428;-46
2023/01/28 04:24:00;;;;;;;0.30;0.30;;;;;;;18.17;41.80;102463.25;5131652;28;20138;-46
2023/01/28 04:26:27;;;;;;;0.40;0.40;;;;;;;18.19;41.90;102466.63;5137042;27;20047;-45
2023/01/28 04:28:53;;;;;;;0.40;0.40;;;;;;;18.19;42.18;102468.56;5151478;27;20051;-47
2023/01/28 04:31:18;;;;;;;0.30;0.30;;;;;;;18.18;41.81;102473.25;5141536;27;20476;-46
2023/01/28 04:33:44;;;;;;;0.30;0.30;;;;;;;18.19;41.71;102468.56;5132968;27;20099;-46
2023/01/28 04:36:10;;;;;;;0.30;0.30;;;;;;;18.18;41.82;102478.75;5118430;27;20049;-46
2023/01/28 04:38:35;;;;;;;0.30;0.30;;;;;;;18.18;41.94;102481.50;5152326;27;20054;-45
2023/01/28 04:41:01;;;;;;;0.30;0.30;;;;;;;18.18;41.84;102484.25;5152588;27;20047;-46
2023/01/28 04:43:27;;;;;;;0.40;0.40;;;;;;;18.18;41.96;102486.19;5152598;27;20046;-48
2023/01/28 04:45:52;;;;;;;0.30;0.30;;;;;;;18.18;41.88;102483.44;5152350;27;20043;-48
2023/01/28 04:48:18;;;;;;;0.30;0.30;;;;;;;18.17;41.82;102484.47;5152093;27;20043;-47
2023/01/28 04:50:44;;;;;;;0.30;0.30;;;;;;;18.17;41.76;102485.31;5152142;27;20051;-47
2023/01/28 04:53:10;;;;;;;0.30;0.30;;;;;;;18.18;41.76;102483.44;5133660;27;20077;-46
2023/01/28 04:55:36;;;;;;;0.30;0.30;;;;;;;18.17;41.84;102471.53;5151542;27;20486;-46
2023/01/28 04:58:01;;;;;;;0.30;0.30;;;;;;;18.18;41.84;102477.91;5151789;27;20047;-45
2023/01/28 05:00:27;;;;;;;0.30;0.30;;;;;;;18.16;41.93;102478.13;5133253;27;20051;-46
2023/01/28 05:02:53;;;;;;;0.40;0.40;;;;;;;18.16;41.71;102480.88;5151965;27;20043;-47
2023/01/28 05:05:18;;;;;;;0.30;0.30;;;;;;;18.16;41.94;102483.66;5152041;27;20149;-46
2023/01/28 05:07:50;;;;;;;0.30;0.30;;;;;;;18.17;41.86;102476.22;5151783;27;20051;-45
2023/01/28 05:10:16;;;;;;;0.30;0.30;;;;;;;18.17;41.84;102477.03;5133484;27;20177;-46
2023/01/28 05:12:43;;;;;;;0.40;0.40;;;;;;;18.17;41.78;102477.03;5152053;27;20070;-46
2023/01/28 05:15:08;;;;;;;0.40;0.40;;;;;;;18.17;41.83;102482.56;5132668;27;20051;-48
2023/01/28 05:17:34;;;;;;;0.30;0.30;;;;;;;18.17;41.93;102478.97;5146533;27;20397;-45
2023/01/28 05:20:00;;;;;;;0.30;0.30;;;;;;;18.16;41.86;102471.78;5150416;27;20053;-46
2023/01/28 05:22:26;;;;;;;0.30;0.30;;;;;;;18.17;41.86;102473.44;5151835;27;20050;-47
2023/01/28 05:24:51;;;;;;;0.60;0.60;;;;;;;18.17;41.93;102478.97;5151430;27;20425;-47
2023/01/28 05:27:17;;;;;;;0.30;0.30;;;;;;;18.17;41.88;102476.22;5151165;27;20054;-46
2023/01/28 05:29:43;;;;;;;0.30;0.30;;;;;;;18.17;41.74;102473.44;5151484;27;20057;-46
2023/01/28 05:32:08;;;;;;;0.30;0.30;;;;;;;18.16;41.80;102480.06;5150976;27;20042;-46
2023/01/28 05:34:34;;;;;;;0.40;0.40;;;;;;;18.17;41.84;102478.97;5151562;27;20046;-47
2023/01/28 05:37:00;;;;;;;0.30;0.30;;;;;;;18.16;41.85;102480.88;5132792;27;20050;-45
2023/01/28 05:39:25;;;;;;;0.30;0.30;;;;;;;18.17;41.78;102478.97;5151238;27;20051;-45
2023/01/28 05:41:51;;;;;;;0.30;0.30;;;;;;;18.17;41.71;102478.97;5151489;27;20504;-46
2023/01/28 05:44:17;;;;;;;0.40;0.40;;;;;;;18.16;41.64;102480.06;5151656;27;20047;-47
2023/01/28 05:46:45;;;;;;;0.30;0.30;;;;;;;18.17;41.72;102492.75;5151286;27;20058;-46
2023/01/28 05:49:12;;;;;;;0.28;0.28;;;;;;;18.16;41.76;102491.09;5150884;27;20429;-46
2023/01/28 05:51:38;;;;;;;0.30;0.30;;;;;;;18.17;41.93;102501.03;5132975;27;20084;-45
2023/01/28 05:54:05;;;;;;;0.40;0.40;;;;;;;18.16;41.93;102505.72;5150774;27;20474;-47
2023/01/28 05:56:31;;;;;;;0.30;0.30;;;;;;;18.17;41.76;102514.81;5150507;27;20066;-46
2023/01/28 05:58:57;;;;;;;0.40;0.40;;;;;;;18.16;41.80;102502.94;5132416;27;20046;-46
2023/01/28 06:01:22;;;;;;;0.30;0.30;;;;;;;18.16;41.70;102510.38;5150737;27;20086;-45
2023/01/28 06:03:48;;;;;;;0.32;0.32;;;;;;;18.16;41.76;102515.91;5151099;27;20043;-46
2023/01/28 06:06:14;;;;;;;0.30;0.30;;;;;;;18.15;41.76;102516.97;5150767;27;20047;-46
2023/01/28 06:08:40;;;;;;;0.30;0.30;;;;;;;18.16;41.69;102515.91;5150966;27;20043;-48
2023/01/28 06:11:05;;;;;;;0.30;0.30;;;;;;;18.15;41.73;102515.06;5151149;27;20054;-46
2023/01/28 06:13:31;;;;;;;0.40;0.40;;;;;;;18.15;41.82;102514.22;5123924;27;20054;-45
2023/01/28 06:15:57;;;;;;;0.35;0.35;;;;;;;18.15;41.78;102517.81;5135163;27;20053;-45
2023/01/28 06:18:22;;;;;;;0.30;0.30;;;;;;;18.16;41.68;102513.97;5138916;27;20428;-46
2023/01/28 06:20:49;;;;;;;0.30;0.30;;;;;;;18.17;41.93;102514.81;5150575;27;20051;-46
2023/01/28 06:23:14;;;;;;;0.30;0.30;;;;;;;18.15;41.80;102526.09;5132141;27;20078;-46
2023/01/28 06:25:40;;;;;;;0.30;0.30;;;;;;;18.16;41.72;102518.66;5150179;27;20335;-46
2023/01/28 06:28:06;;;;;;;0.30;0.30;;;;;;;18.15;41.73;102520.56;5131904;27;20076;-45
2023/01/28 06:30:32;;;;;;;0.38;0.38;;;;;;;18.16;41.89;102526.94;5150172;27;20066;-46
2023/01/28 06:32:57;;;;;;;0.30;0.30;;;;;;;18.16;41.50;102526.94;5150395;27;20054;-46
2023/01/28 06:35:23;;;;;;;0.30;0.30;;;;;;;18.15;41.67;102520.56;5150452;27;20474;-47
2023/01/28 06:37:49;;;;;;;0.40;0.40;;;;;;;18.14;41.78;102516.16;5150411;27;20057;-45
2023/01/28 06:40:15;;;;;;;0.30;0.30;;;;;;;18.14;41.90;102518.91;5131804;27;20083;-47
2023/01/28 06:42:41;;;;;;;0.40;0.40;;;;;;;18.14;41.63;102518.91;5131871;27;20130;-46
2023/01/28 06:45:07;;;;;;;0.40;0.40;;;;;;;18.15;41.80;102525.25;5150429;27;20047;-52
2023/01/28 06:47:32;;;;;;;0.40;0.40;;;;;;;18.16;41.62;102524.16;5150348;27;20058;-45
2023/01/28 06:49:58;;;;;;;0.40;0.40;;;;;;;18.16;41.62;102521.41;5150321;27;20049;-46
2023/01/28 06:52:24;;;;;;;0.38;0.38;;;;;;;18.15;41.81;102519.75;5150218;27;20099;-45
2023/01/28 06:54:49;;;;;;;0.40;0.40;;;;;;;18.15;41.76;102530.78;5150199;27;20047;-46
2023/01/28 06:57:15;;;;;;;0.30;0.30;;;;;;;18.14;41.81;102521.66;5149723;27;20046;-46
2023/01/28 06:59:41;;;;;;;0.40;0.40;;;;;;;18.15;41.78;102522.50;5150047;27;20054;-45
2023/01/28 07:02:09;;;;;;;0.40;0.40;;;;;;;18.14;41.95;102529.94;5149831;27;20394;-45
2023/01/28 07:04:34;;;;;;;0.30;0.30;;;;;;;18.14;41.65;102524.41;5150259;27;20061;-46
2023/01/28 07:07:00;;;;;;;0.30;0.30;;;;;;;18.14;41.69;102515.31;5141439;27;20043;-46
2023/01/28 07:09:25;;;;;;;0.40;0.40;;;;;;;18.13;41.89;102517.19;5129365;27;20483;-46
2023/01/28 07:11:51;;;;;;;0.40;0.40;;;;;;;18.14;41.75;102526.34;5134940;27;20039;-46
2023/01/28 07:14:17;;;;;;;0.40;0.40;;;;;;;18.15;41.76;102525.25;5150299;27;20125;-45
2023/01/28 07:16:42;;;;;;;0.30;0.30;;;;;;;18.14;41.88;102518.06;5147298;27;20441;-46
2023/01/28 07:19:08;;;;;;;0.50;0.50;;;;;;;18.14;41.71;102518.91;5128997;27;20162;-46
2023/01/28 07:21:34;;;;;;;0.40;0.40;;;;;;;18.14;41.77;102515.31;5129456;28;20505;-46
2023/01/28 07:23:59;;;;;;;0.38;0.38;;;;;;;18.13;41.63;102522.72;5129277;28;20410;-46
2023/01/28 07:26:25;;;;;;;0.40;0.40;;;;;;;18.14;41.82;102529.09;5128627;27;20051;-46
2023/01/28 07:28:51;;;;;;;0.30;0.30;;;;;;;18.14;41.73;102529.94;5129286;27;20415;-46
2023/01/28 07:31:16;;;;;;;0.30;0.30;;;;;;;18.14;41.60;102527.16;5128859;28;20043;-47
2023/01/28 07:33:42;;;;;;;0.40;0.40;;;;;;;18.14;41.57;102531.84;5129225;28;20407;-46
2023/01/28 07:36:08;;;;;;;0.30;0.30;;;;;;;18.14;41.77;102527.16;5128817;27;20386;-48
2023/01/28 07:38:34;;;;;;;0.40;0.40;;;;;;;18.13;41.66;102521.88;5129154;27;20044;-46
2023/01/28 07:40:59;;;;;;;0.40;0.40;;;;;;;18.12;41.73;102523.78;5128904;28;20405;-45
2023/01/28 07:43:25;;;;;;;0.30;0.30;;;;;;;18.13;41.57;102530.16;5130780;27;20082;-46
2023/01/28 07:45:51;;;;;;;0.40;0.40;;;;;;;18.13;41.74;102533.75;5132620;27;20043;-46
2023/01/28 07:48:17;;;;;;;0.35;0.35;;;;;;;18.12;41.70;102534.81;5132537;27;20168;-45
2023/01/28 07:57:53;;;;;;;0.40;0.40;;;;;;;18.12;41.74;102536.75;5132306;27;20075;-45
2023/01/28 08:00:20;;;;;;;0.30;0.30;;;;;;;18.13;41.79;102533.75;5132520;28;20138;-48
2023/01/28 08:02:47;;;;;;;0.40;0.40;;;;;;;18.12;41.90;102534.81;5132088;28;20043;-47
2023/01/28 08:05:15;;;;;;;0.30;0.30;;;;;;;18.11;41.82;102544.19;5113970;28;20079;-46
2023/01/28 08:07:41;;;;;;;0.20;0.20;;;;;;;18.12;41.91;102551.38;5118095;27;20055;-46
2023/01/28 08:10:07;;;;;;;0.40;0.40;;;;;;;18.12;41.70;102556.03;5153044;27;20054;-46
2023/01/28 08:12:33;;;;;;;0.40;0.40;;;;;;;18.13;41.74;102566.00;5152946;27;20046;-49
2023/01/28 08:14:59;;;;;;;0.40;0.40;;;;;;;18.12;41.78;102564.31;5153047;27;20042;-46
2023/01/28 08:17:24;;;;;;;0.40;0.40;;;;;;;18.12;41.81;102572.59;5143642;27;20490;-47
2023/01/28 08:19:50;;;;;;;0.32;0.32;;;;;;;18.12;41.78;102567.06;5132150;28;20039;-48
2023/01/28 08:22:16;;;;;;;0.40;0.40;;;;;;;18.11;41.73;102574.50;5131872;28;20040;-46
2023/01/28 08:24:41;;;;;;;0.30;0.30;;;;;;;18.11;41.78;102577.25;5131746;28;20127;-45
2023/01/28 08:27:07;;;;;;;0.50;0.50;;;;;;;18.12;41.43;102586.38;5131703;27;20462;-46
2023/01/28 08:29:33;;;;;;;0.30;0.30;;;;;;;18.11;41.71;102591.03;5131868;27;20047;-46
2023/01/28 08:31:58;;;;;;;0.40;0.40;;;;;;;18.12;41.63;102589.13;5131564;28;20044;-46
2023/01/28 08:34:24;;;;;;;0.40;0.40;;;;;;;18.11;41.73;102588.28;5131874;28;20099;-47
2023/01/28 08:36:50;;;;;;;0.40;0.40;;;;;;;18.12;41.36;102591.88;5131619;27;20045;-45
2023/01/28 08:39:15;;;;;;;0.30;0.30;;;;;;;18.12;41.74;102595.47;5131728;27;20053;-47
2023/01/28 08:41:41;;;;;;;0.40;0.40;;;;;;;18.11;41.81;102593.81;5131811;28;20047;-47
2023/01/28 08:44:07;;;;;;;0.30;0.30;;;;;;;18.12;41.71;102597.41;5131865;28;20043;-46
2023/01/28 08:46:32;;;;;;;0.40;0.40;;;;;;;18.11;41.79;102590.22;5131712;27;20051;-46
2023/01/28 08:48:58;;;;;;;0.40;0.40;;;;;;;18.11;41.80;102593.81;5131518;27;20495;-48
2023/01/28 08:51:24;;;;;;;0.40;0.40;;;;;;;18.11;41.70;102587.47;5131734;27;20047;-45
2023/01/28 08:53:49;;;;;;;0.40;0.40;;;;;;;18.11;41.70;102595.72;5131037;27;20047;-46
2023/01/28 08:56:15;;;;;;;0.40;0.40;;;;;;;18.12;41.69;102608.44;5130853;27;20495;-45
2023/01/28 08:58:41;;;;;;;0.40;0.40;;;;;;;18.11;41.76;102610.34;5131515;27;20142;-46
2023/01/28 09:01:06;;;;;;;0.40;0.40;;;;;;;18.11;41.81;102621.38;5131081;28;20043;-46
2023/01/28 09:03:32;;;;;;;0.35;0.35;;;;;;;18.12;41.65;102633.25;5131506;28;20447;-46
2023/01/28 09:06:01;;;;;;;0.40;0.40;;;;;;;18.11;41.74;102629.66;5132635;27;20043;-47
2023/01/28 09:08:26;;;;;;;0.30;0.30;;;;;;;18.12;41.62;102636.84;5151820;27;20095;-46
2023/01/28 09:10:55;;;;;;;0.30;0.30;;;;;;;18.11;41.67;102631.56;5133466;27;20051;-46
2023/01/28 09:13:20;;;;;;;0.30;0.30;;;;;;;18.11;41.89;102637.91;5133364;27;20122;-45
2023/01/28 09:15:46;;;;;;;0.30;0.30;;;;;;;18.10;41.59;102639.00;5157156;27;20042;-45
2023/01/28 09:18:12;;;;;;;0.40;0.40;;;;;;;18.10;41.60;102643.69;5130764;27;20043;-46
2023/01/28 09:20:38;;;;;;;0.38;0.38;;;;;;;18.11;41.84;102651.72;5131051;28;20050;-45
2023/01/28 09:23:03;;;;;;;0.40;0.40;;;;;;;18.10;41.57;102657.47;5130798;28;20054;-45
2023/01/28 09:25:29;;;;;;;0.30;0.30;;;;;;;18.10;41.75;102652.78;5130646;28;20375;-48
2023/01/28 09:27:56;;;;;;;0.40;0.40;;;;;;;18.11;41.79;102651.72;5130760;27;20302;-45
2023/01/28 09:30:22;;;;;;;0.40;0.40;;;;;;;18.10;41.66;102658.31;5130808;28;20520;-46
2023/01/28 09:32:50;;;;;;;0.30;0.30;;;;;;;18.11;41.74;102653.63;5130652;27;20099;-45
2023/01/28 09:35:16;;;;;;;0.40;0.40;;;;;;;18.10;41.72;102652.78;5130918;28;20059;-45
2023/01/28 09:37:42;;;;;;;0.40;0.40;;;;;;;18.10;41.74;102651.94;5146779;27;20055;-45
2023/01/28 09:40:30;;;;;;;0.30;0.30;;;;;;;18.11;41.78;102659.13;5151629;27;20050;-46
2023/01/28 09:45:42;;;;;;;0.40;0.40;;;;;;;18.10;41.79;102655.53;5189036;27;20127;-46
2023/01/28 09:48:13;;;;;;;0.40;0.40;;;;;;;18.10;41.67;102654.72;5167604;27;20039;-46
2023/01/28 09:50:41;;;;;;;0.30;0.30;;;;;;;18.09;41.64;102651.13;5149260;27;20077;-44
2023/01/28 09:53:12;;;;;;;0.30;0.30;;;;;;;18.10;41.76;102662.97;5149413;27;20478;-45
2023/01/28 09:55:40;;;;;;;0.30;0.30;;;;;;;18.10;41.59;102662.97;5167246;27;20046;-45
2023/01/28 09:58:10;;;;;;;0.35;0.35;;;;;;;18.10;41.62;102662.97;5131935;27;20115;-47
2023/01/28 10:00:42;;;;;;;0.30;0.30;;;;;;;18.10;41.70;102661.06;5149120;27;20046;-46
2023/01/28 10:03:21;;;;;;;0.30;0.30;;;;;;;18.11;41.64;102671.00;5167635;27;20050;-45
2023/01/28 10:06:07;;;;;;;0.30;0.30;;;;;;;18.10;41.83;102672.09;5167609;27;20046;-46
2023/01/28 10:11:38;;;;;;;0.77;0.77;;;;;;;18.11;41.79;102672.94;5189269;27;20258;-45
2023/01/28 10:14:10;;;;;;;0.40;0.40;;;;;;;18.10;41.79;102657.47;5148722;27;20058;-45
2023/01/28 10:16:49;;;;;;;0.30;0.30;;;;;;;18.11;41.72;102659.13;5157793;27;20071;-45
2023/01/28 10:19:22;;;;;;;0.30;0.30;;;;;;;18.09;41.65;102662.13;5146809;27;20494;-45
2023/01/28 10:21:51;;;;;;;0.30;0.30;;;;;;;18.09;41.82;102659.38;5128780;27;20073;-47
2023/01/28 10:24:24;;;;;;;0.30;0.30;;;;;;;18.09;41.67;102666.78;5146812;27;20500;-47
2023/01/28 10:26:51;;;;;;;0.30;0.30;;;;;;;18.08;41.62;102654.91;5137281;27;20168;-47
2023/01/28 10:29:20;;;;;;;0.40;0.40;;;;;;;18.09;41.62;102651.13;5167614;27;20046;-45
2023/01/28 10:31:54;;;;;;;0.40;0.40;;;;;;;18.09;41.68;102650.25;5128180;27;20066;-45
2023/01/28 10:34:21;;;;;;;0.30;0.30;;;;;;;18.10;41.56;102646.44;5147085;27;20350;-45
2023/01/28 10:36:47;;;;;;;0.40;0.40;;;;;;;18.09;41.73;102644.72;5119218;27;20118;-46
2023/01/28 10:39:14;;;;;;;0.40;0.40;;;;;;;18.09;41.67;102642.84;5131607;27;20482;-46
2023/01/28 10:41:40;;;;;;;0.30;0.30;;;;;;;18.09;41.69;102647.47;5167621;27;20053;-46
2023/01/28 10:44:31;;;;;;;0.40;0.40;;;;;;;18.08;41.76;102641.13;5167490;27;20546;-47
2023/01/28 10:47:00;;;;;;;0.40;0.40;;;;;;;18.09;41.77;102645.59;5148552;27;20078;-45
2023/01/28 10:49:28;;;;;;;0.40;0.40;;;;;;;18.10;41.65;102652.78;5167319;27;20529;-45
2023/01/28 10:51:54;;;;;;;0.30;0.30;;;;;;;18.09;41.52;102653.88;5167424;27;20038;-45
2023/01/28 10:54:23;;;;;;;0.40;0.40;;;;;;;18.10;41.71;102657.47;5167328;27;20043;-46
2023/01/28 10:56:52;;;;;;;0.30;0.30;;;;;;;18.10;41.63;102665.72;5148200;27;20050;-46
2023/01/28 10:59:25;;;;;;;0.35;0.35;;;;;;;18.09;41.63;102659.38;5131345;27;20046;-45
2023/01/28 11:01:55;;;;;;;0.30;0.30;;;;;;;18.10;41.54;102662.97;5148870;27;20474;-45
2023/01/28 11:04:24;;;;;;;0.40;0.40;;;;;;;18.09;41.65;102659.38;5167177;27;20039;-45
2023/01/28 11:06:51;;;;;;;;;;;;;;;18.09;41.64;102658.50;5167150;27;20410;-46
2023/01/28 11:09:21;;;;;;;0.40;0.40;;;;;;;18.10;41.73;102671.25;5147768;27;20403;-46
2023/01/28 11:11:47;;;;;;;0.30;0.30;;;;;;;18.08;41.94;102674.22;5131336;27;20053;-48
2023/01/28 11:14:22;;;;;;;0.40;0.40;;;;;;;18.09;41.64;102673.16;5167160;27;20047;-45
2023/01/28 11:16:50;;;;;;;0.30;0.30;;;;;;;18.08;41.58;102676.97;5136696;27;20478;-45
2023/01/28 11:19:17;;;;;;;0.40;0.40;;;;;;;18.09;41.59;102691.59;5148049;27;20492;-45
2023/01/28 11:21:48;;;;;;;0.30;0.30;;;;;;;18.09;41.59;102688.84;5139439;27;20084;-45
2023/01/28 11:24:18;;;;;;;0.40;0.40;;;;;;;18.08;41.65;102688.00;5134163;27;20127;-45
2023/01/28 11:26:48;;;;;;;0.40;0.40;;;;;;;18.08;41.58;102690.75;5152403;27;20079;-46
2023/01/28 11:29:23;;;;;;;0.30;0.30;;;;;;;18.09;41.58;102680.56;5134183;27;20046;-45
2023/01/28 11:31:49;;;;;;;0.30;0.30;;;;;;;18.08;41.64;102676.97;5133970;27;20070;-47
2023/01/28 11:34:17;;;;;;;0.40;0.40;;;;;;;18.08;41.65;102674.22;5152751;27;20167;-46
2023/01/28 11:36:51;;;;;;;0.40;0.40;;;;;;;18.08;41.51;102681.66;5133875;27;20224;-46
2023/01/28 11:39:24;;;;;;;0.40;0.40;;;;;;;18.08;41.72;102668.69;5117036;27;20065;-47
2023/01/28 11:41:50;;;;;;;0.40;0.40;;;;;;;18.07;41.67;102650.47;5134245;27;20216;-46
2023/01/28 11:44:22;;;;;;;0.30;0.30;;;;;;;18.07;41.53;102669.78;5134082;27;20070;-46
2023/01/28 11:47:28;;;;;;;0.40;0.40;;;;;;;18.09;41.54;102675.06;5133952;27;20049;-47
2023/01/28 11:50:06;;;;;;;0.40;0.40;;;;;;;18.08;41.74;102665.94;5125358;27;20046;-46
2023/01/28 11:52:54;;;;;;;0.30;0.30;;;;;;;18.08;41.64;102665.09;5152490;27;20091;-48
2023/01/28 11:56:12;;;;;;;0.30;0.30;;;;;;;18.08;41.82;102649.41;5123089;27;20057;-46
2023/01/28 11:59:02;;;;;;;0.40;0.40;;;;;;;18.07;41.54;102663.44;5125362;27;20056;-46
2023/01/28 12:01:42;;;;;;;0.40;0.40;;;;;;;18.08;41.60;102654.06;5137051;27;20055;-47
2023/01/28 12:04:48;;;;;;;0.30;0.30;;;;;;;18.08;41.63;102662.34;5152378;27;20113;-45
2023/01/28 12:07:48;;;;;;;0.40;0.40;;;;;;;18.08;41.60;102656.84;5124808;27;20115;-45
2023/01/28 12:10:45;;;;;;;0.40;0.40;;;;;;;18.08;41.57;102648.56;5143292;27;20047;-47
2023/01/28 12:13:49;;;;;;;0.40;0.40;;;;;;;18.07;41.49;102649.66;5117919;28;20075;-45
2023/01/28 12:16:23;;;;;;;0.40;0.40;;;;;;;18.06;41.45;102654.31;5137965;27;20068;-45
2023/01/28 12:19:25;;;;;;;0.40;0.40;;;;;;;18.07;41.70;102649.66;5131391;27;20115;-45
2023/01/28 12:22:25;;;;;;;0.30;0.30;;;;;;;18.07;41.63;102636.69;5115746;28;20046;-45
2023/01/28 12:25:31;;;;;;;0.40;0.40;;;;;;;18.07;41.66;102635.88;5115659;28;20047;-45